Time;durP1;ratioP1;P1;durP2;ratioP2;P2;SDS_P1;SDS_P2;PMS_P1;PMS_P2;Temp;Humidity;BMP_temperature;BMP_pressure;BME280_temperature;BME280_humidity;BME280_pressure;Samples;Min_cycle;Max_cycle;Signal;HPM_P1;HPM_P2
2023/09/10 00:02:00;;;;;;;;;14.00;12.00;;;;;29.03;72.80;101221.16;5051447;28;56104;-72
2023/09/10 00:04:26;;;;;;;;;12.00;10.33;;;;;29.00;73.36;101224.06;5055231;28;45467;-73
2023/09/10 00:06:52;;;;;;;;;11.67;11.67;;;;;28.96;73.61;101223.34;5064594;28;45528;-72
2023/09/10 00:09:17;;;;;;;;;11.67;10.33;;;;;28.94;73.89;101217.16;5060964;28;45565;-73
2023/09/10 00:11:43;;;;;;;;;14.67;12.00;;;;;28.90;73.98;101226.41;5064590;28;59732;-73
2023/09/10 00:14:08;;;;;;;;;14.00;12.67;;;;;28.85;74.06;101220.38;5056010;28;45484;-72
2023/09/10 00:16:33;;;;;;;;;14.67;12.33;;;;;28.82;74.86;101218.72;5063887;28;45384;-74
2023/09/10 00:18:59;;;;;;;;;16.33;11.33;;;;;28.82;74.79;101218.72;5066134;28;45270;-73
2023/09/10 00:21:24;;;;;;;;;18.00;11.00;;;;;28.79;75.00;101220.75;5050974;28;55250;-73
2023/09/10 00:23:49;;;;;;;;;13.00;11.67;;;;;28.78;75.61;101222.59;5054720;28;45484;-73
2023/09/10 00:26:15;;;;;;;;;12.67;11.33;;;;;28.75;75.74;101214.59;5053236;28;65195;-73
2023/09/10 00:28:40;;;;;;;;;14.00;11.33;;;;;28.70;76.47;101223.03;5049847;28;57091;-73
2023/09/10 00:31:07;;;;;;;;;10.33;9.67;;;;;28.67;75.67;101223.22;5056731;28;47226;-72
2023/09/10 00:33:32;;;;;;;;;10.67;10.67;;;;;28.66;76.46;101226.03;5055250;28;45417;-73
2023/09/10 00:35:58;;;;;;;;;11.33;11.33;;;;;28.64;76.59;101222.50;5052033;28;64359;-73
2023/09/10 00:38:23;;;;;;;;;16.67;14.00;;;;;28.62;77.30;101219.91;5047373;28;61063;-73
2023/09/10 00:40:48;;;;;;;;;18.00;14.67;;;;;28.61;76.30;101214.56;5053881;28;56474;-73
2023/09/10 00:43:14;;;;;;;;;17.33;14.67;;;;;28.60;78.81;101221.81;5056160;28;66684;-73
2023/09/10 00:45:39;;;;;;;;;17.00;11.00;;;;;28.62;77.56;101217.19;5050176;28;59949;-73
2023/09/10 00:48:05;;;;;;;;;14.33;14.33;;;;;28.66;76.71;101226.03;5051181;28;45460;-73
2023/09/10 00:50:30;;;;;;;;;13.33;13.33;;;;;28.65;76.91;101222.41;5056044;28;46080;-73
2023/09/10 00:52:57;;;;;;;;;16.67;15.33;;;;;28.63;76.87;101224.34;5049329;28;70785;-73
2023/09/10 00:55:23;;;;;;;;;16.67;15.33;;;;;28.66;76.45;101226.91;5057293;28;45462;-73
2023/09/10 00:57:50;;;;;;;;;12.67;11.67;;;;;28.61;76.82;101223.59;5061391;28;45517;-73
2023/09/10 01:00:15;;;;;;;;;15.00;12.00;;;;;28.60;77.27;101221.81;5062995;28;46720;-73
2023/09/10 01:02:44;;;;;;;;;14.33;12.33;;;;;28.59;77.02;101224.63;5058821;28;56874;-73
2023/09/10 01:05:13;;;;;;;;;17.33;13.67;;;;;28.59;76.77;101230.94;5060093;28;45563;-73
2023/09/10 01:07:39;;;;;;;;;13.00;11.33;;;;;28.54;77.16;101224.00;5050271;28;45546;-75
2023/09/10 01:10:08;;;;;;;;;16.33;13.00;;;;;28.57;76.60;101232.88;5057084;28;45437;-73
2023/09/10 01:12:41;;;;;;;;;16.67;12.00;;;;;28.52;77.22;101229.53;5073250;28;45440;-74
2023/09/10 01:15:14;;;;;;;;;14.00;13.00;;;;;28.52;77.63;101234.97;5060260;28;45395;-74
2023/09/10 01:17:45;;;;;;;;;12.00;12.00;;;;;28.48;77.39;101235.22;5049586;28;45387;-72
2023/09/10 01:20:38;;;;;;;;;14.33;11.67;;;;;28.44;77.91;101238.16;5061882;28;46532;-73
2023/09/10 01:23:08;;;;;;;;;13.00;10.67;;;;;28.40;77.38;101231.13;5059361;28;45320;-73
2023/09/10 01:25:33;;;;;;;;;11.00;10.00;;;;;28.38;77.85;101234.88;5064070;28;45418;-73
2023/09/10 01:28:04;;;;;;;;;12.67;12.67;;;;;28.35;78.29;101233.22;5068141;27;45616;-73
2023/09/10 01:30:30;;;;;;;;;13.00;12.33;;;;;28.32;78.42;101235.19;5061582;28;46696;-74
2023/09/10 01:33:06;;;;;;;;;12.67;11.00;;;;;28.29;78.21;101228.13;5063627;28;45323;-73
2023/09/10 01:35:45;;;;;;;;;17.33;11.00;;;;;28.28;78.41;101230.91;5058188;28;45817;-73
2023/09/10 01:38:17;;;;;;;;;10.67;10.00;;;;;28.24;78.63;101227.50;5059146;27;45402;-73
2023/09/10 01:40:46;;;;;;;;;11.33;9.67;;;;;28.19;78.99;101229.59;5056446;28;46522;-74
2023/09/10 01:43:11;;;;;;;;;11.67;10.33;;;;;28.16;79.20;101236.06;5063239;28;45437;-73
2023/09/10 01:45:37;;;;;;;;;8.00;8.00;;;;;28.10;79.33;101236.41;5074115;28;45320;-73
2023/09/10 01:48:03;;;;;;;;;12.33;10.67;;;;;28.07;79.51;101230.25;5060901;28;45582;-73
2023/09/10 01:50:29;;;;;;;;;11.00;10.00;;;;;28.06;79.51;101233.94;5066883;28;45344;-73
2023/09/10 01:52:57;;;;;;;;;11.00;11.00;;;;;28.04;79.87;101238.59;5054208;28;45355;-73
2023/09/10 01:55:22;;;;;;;;;16.00;12.00;;;;;28.02;80.06;101235.97;5060992;28;45475;-73
2023/09/10 01:57:47;;;;;;;;;10.33;9.33;;;;;27.99;80.28;101238.84;5056579;28;57782;-73
2023/09/10 02:00:13;;;;;;;;;11.33;11.00;;;;;27.97;80.10;101239.91;5057619;28;71096;-74
2023/09/10 02:02:38;;;;;;;;;14.67;11.33;;;;;27.94;80.32;101240.94;5054989;27;45347;-75
2023/09/10 02:05:04;;;;;;;;;13.67;10.67;;;;;27.89;80.33;101230.31;5054556;28;65043;-73
2023/09/10 02:07:29;;;;;;;;;12.67;10.67;;;;;27.88;80.41;101235.84;5056201;28;45430;-73
2023/09/10 02:09:58;;;;;;;;;14.67;12.33;;;;;27.84;81.19;101236.97;5049703;28;46896;-73
2023/09/10 02:12:24;;;;;;;;;18.67;14.67;;;;;27.80;81.37;101230.81;5059099;28;45464;-73
2023/09/10 02:14:49;;;;;;;;;13.67;13.67;;;;;27.76;81.77;101228.38;5055068;28;45455;-74
2023/09/10 02:17:15;;;;;;;;;15.00;11.00;;;;;27.68;82.40;101229.63;5073212;28;45570;-73
2023/09/10 02:19:40;;;;;;;;;15.67;12.33;;;;;27.69;82.14;101236.78;5060784;27;48348;-73
2023/09/10 02:22:05;;;;;;;;;13.00;10.00;;;;;27.65;82.85;101234.34;5057635;28;67859;-73
2023/09/10 02:24:31;;;;;;;;;11.67;10.33;;;;;27.63;82.60;101234.41;5056746;28;52024;-75
2023/09/10 02:26:56;;;;;;;;;10.00;9.67;;;;;27.61;82.98;101240.91;5063441;28;58278;-73
2023/09/10 02:29:21;;;;;;;;;13.00;12.00;;;;;27.57;82.96;101237.47;5062907;28;65484;-73
2023/09/10 02:31:47;;;;;;;;;9.67;9.33;;;;;27.56;83.36;101240.28;5060250;28;68130;-73
2023/09/10 02:34:12;;;;;;;;;10.33;10.33;;;;;27.54;83.69;101237.66;5055676;28;56045;-73
2023/09/10 02:36:37;;;;;;;;;14.00;10.67;;;;;27.50;83.58;101227.91;5059439;28;45441;-72
2023/09/10 02:39:03;;;;;;;;;12.67;11.33;;;;;27.50;83.85;101237.88;5057926;28;46513;-74
2023/09/10 02:41:28;;;;;;;;;9.67;9.00;;;;;27.48;84.10;101226.22;5058881;28;45427;-73
2023/09/10 02:43:54;;;;;;;;;15.33;11.67;;;;;27.48;84.37;101239.78;5068049;28;57919;-72
2023/09/10 02:46:19;;;;;;;;;12.00;11.00;;;;;27.43;84.45;101240.03;5074030;28;45500;-73
2023/09/10 02:48:44;;;;;;;;;13.00;11.00;;;;;27.41;84.81;101236.53;5068138;28;46326;-73
2023/09/10 02:51:10;;;;;;;;;9.33;9.00;;;;;27.40;84.75;101232.06;5070487;28;56899;-73
2023/09/10 02:53:35;;;;;;;;;10.67;10.67;;;;;27.36;85.08;101239.47;5068232;28;45414;-73
2023/09/10 02:56:01;;;;;;;;;14.33;9.67;;;;;27.35;85.01;101240.44;5066304;28;62525;-74
2023/09/10 02:58:26;;;;;;;;;11.33;10.00;;;;;27.31;85.28;101240.69;5067026;27;46348;-73
2023/09/10 03:00:51;;;;;;;;;12.00;9.67;;;;;27.29;85.35;101237.19;5056969;28;45407;-73
2023/09/10 03:03:19;;;;;;;;;13.33;11.67;;;;;27.27;85.82;101236.38;5063884;28;64142;-73
2023/09/10 03:05:45;;;;;;;;;13.33;11.33;;;;;27.23;85.50;101232.09;5061346;28;45502;-73
2023/09/10 03:08:10;;;;;;;;;14.33;11.00;;;;;27.19;86.26;101225.94;5057638;28;45597;-73
2023/09/10 03:10:35;;;;;;;;;9.00;9.00;;;;;27.17;86.70;101230.56;5058872;28;45371;-73
2023/09/10 03:13:01;;;;;;;;;12.33;11.00;;;;;27.13;86.52;101223.53;5054054;28;45445;-73
2023/09/10 03:15:26;;;;;;;;;10.67;10.33;;;;;27.10;86.56;101227.28;5073505;28;45448;-72
2023/09/10 03:17:51;;;;;;;;;9.00;7.67;;;;;27.09;87.34;101224.66;5071167;28;45605;-72
2023/09/10 03:20:17;;;;;;;;;13.33;13.33;;;;;27.08;87.41;101210.22;5070697;28;64614;-73
2023/09/10 03:22:42;;;;;;;;;12.00;10.00;;;;;27.06;87.77;101206.69;5061732;28;49175;-73
2023/09/10 03:25:08;;;;;;;;;10.33;10.33;;;;;27.07;88.02;101207.59;5067452;28;45474;-74
2023/09/10 03:27:33;;;;;;;;;10.33;10.33;;;;;27.05;87.75;101206.75;5061381;27;46228;-73
2023/09/10 03:29:59;;;;;;;;;12.33;10.00;;;;;27.03;88.43;101209.56;5063348;28;45350;-73
2023/09/10 03:32:25;;;;;;;;;9.00;9.00;;;;;27.03;88.77;101204.13;5058808;27;45260;-72
2023/09/10 03:34:50;;;;;;;;;10.33;10.00;;;;;26.99;88.61;101199.81;5061159;28;45184;-73
2023/09/10 03:37:15;;;;;;;;;10.00;10.00;;;;;27.00;88.37;101206.13;5059584;28;62527;-74
2023/09/10 03:39:41;;;;;;;;;11.33;9.67;;;;;26.96;89.04;101205.41;5054088;28;47403;-74
2023/09/10 03:42:08;;;;;;;;;12.00;9.00;;;;;26.95;88.99;101214.47;5069868;28;45444;-73
2023/09/10 03:44:33;;;;;;;;;9.00;6.67;;;;;26.94;88.97;101206.44;5073588;28;45597;-73
2023/09/10 03:47:00;;;;;;;;;13.67;11.67;;;;;26.87;89.61;101201.34;5068289;28;67727;-73
2023/09/10 03:49:25;;;;;;;;;10.67;10.33;;;;;26.83;90.12;101210.56;5070085;27;45224;-73
2023/09/10 03:51:51;;;;;;;;;10.33;10.33;;;;;26.80;90.61;101207.16;5075511;28;62932;-72
2023/09/10 03:54:17;;;;;;;;;10.00;9.00;;;;;26.76;90.83;101213.69;5063798;27;45272;-73
2023/09/10 03:56:43;;;;;;;;;14.00;12.00;;;;;26.74;91.18;101207.44;5063610;28;46331;-74
2023/09/10 03:59:08;;;;;;;;;14.00;13.00;;;;;26.71;91.19;101210.31;5068657;28;45182;-73
2023/09/10 04:01:35;;;;;;;;;10.67;10.00;;;;;26.71;91.27;101211.19;5069884;28;45200;-73
2023/09/10 04:04:00;;;;;;;;;9.33;9.33;;;;;26.66;91.96;101209.66;5063006;28;45308;-73
2023/09/10 04:06:25;;;;;;;;;8.00;8.00;;;;;26.66;92.24;101207.84;5067665;28;46142;-74
2023/09/10 04:08:51;;;;;;;;;10.00;9.00;;;;;26.64;91.83;101207.91;5049688;28;68354;-72
2023/09/10 04:11:16;;;;;;;;;12.33;12.33;;;;;26.63;91.92;101205.25;5057515;28;62299;-75
2023/09/10 04:13:41;;;;;;;;;11.00;10.00;;;;;26.63;92.11;101203.47;5051833;28;45351;-73
2023/09/10 04:16:07;;;;;;;;;13.00;10.33;;;;;26.61;92.80;101201.78;5061096;28;69215;-74
2023/09/10 04:18:34;;;;;;;;;13.33;10.33;;;;;26.60;92.33;101198.19;5066914;28;68548;-73
2023/09/10 04:21:03;;;;;;;;;10.00;10.00;;;;;26.61;92.65;101201.78;5058483;28;45346;-74
2023/09/10 04:23:28;;;;;;;;;12.00;11.33;;;;;26.58;92.39;101202.81;5062295;28;45643;-72
2023/09/10 04:25:53;;;;;;;;;10.00;10.00;;;;;26.56;92.69;101207.41;5064542;27;46207;-72
2023/09/10 04:28:19;;;;;;;;;15.33;11.67;;;;;26.56;93.01;101202.00;5062668;28;66236;-73
2023/09/10 04:30:44;;;;;;;;;12.33;11.00;;;;;26.55;93.01;101208.38;5060766;28;46070;-73
2023/09/10 04:33:11;;;;;;;;;9.33;9.00;;;;;26.51;93.25;101203.19;5060502;28;53080;-72
2023/09/10 04:35:37;;;;;;;;;10.33;10.33;;;;;26.51;93.52;101204.06;5060592;28;45993;-72
2023/09/10 04:38:02;;;;;;;;;11.67;10.33;;;;;26.48;94.03;101204.22;5043696;28;45652;-72
2023/09/10 04:40:28;;;;;;;;;10.33;9.67;;;;;26.48;94.54;101206.06;5054588;28;45566;-73
2023/09/10 04:42:53;;;;;;;;;14.00;11.67;;;;;26.47;94.75;101202.44;5054442;28;45446;-75
2023/09/10 04:45:18;;;;;;;;;13.00;11.00;;;;;26.45;95.10;101203.47;5060486;28;45517;-73
2023/09/10 04:47:44;;;;;;;;;12.00;10.67;;;;;26.43;95.05;101200.00;5073590;27;69155;-73
2023/09/10 04:50:09;;;;;;;;;11.00;9.00;;;;;26.42;95.52;101206.34;5057714;28;60776;-73
2023/09/10 04:52:34;;;;;;;;;11.33;9.00;;;;;26.41;94.94;101205.41;5073025;28;45517;-73
2023/09/10 04:55:00;;;;;;;;;14.67;13.00;;;;;26.41;94.85;101209.97;5055081;27;70020;-73
2023/09/10 04:57:26;;;;;;;;;10.33;10.33;;;;;26.41;95.37;101209.97;5063449;28;66310;-72
2023/09/10 04:59:51;;;;;;;;;11.00;8.00;;;;;26.41;94.91;101208.13;5064770;27;45875;-72
2023/09/10 05:02:17;;;;;;;;;12.33;11.33;;;;;26.39;95.03;101201.94;5064455;28;45378;-72
2023/09/10 05:04:42;;;;;;;;;10.00;10.00;;;;;26.39;95.09;101213.63;5056937;28;46509;-73
2023/09/10 05:07:08;;;;;;;;;14.33;10.67;;;;;26.35;95.49;101203.88;5062197;28;45341;-72
2023/09/10 05:09:33;;;;;;;;;13.67;10.00;;;;;26.37;95.72;101198.44;5059824;28;45464;-74
2023/09/10 05:11:59;;;;;;;;;10.00;10.00;;;;;26.38;94.95;101211.88;5053294;28;45276;-72
2023/09/10 05:14:26;;;;;;;;;11.33;10.00;;;;;26.39;95.23;101210.03;5061891;28;46556;-73
2023/09/10 05:16:51;;;;;;;;;10.67;10.33;;;;;26.40;95.46;101217.22;5071878;28;45481;-73
2023/09/10 05:19:16;;;;;;;;;13.00;12.00;;;;;26.38;95.30;101211.88;5061375;28;61975;-73
2023/09/10 05:21:42;;;;;;;;;10.67;10.00;;;;;26.40;95.37;101214.50;5067509;28;45869;-73
2023/09/10 05:24:07;;;;;;;;;9.00;9.00;;;;;26.38;95.04;101211.88;5062512;28;72735;-73
2023/09/10 05:26:32;;;;;;;;;11.33;11.33;;;;;26.40;95.70;101211.78;5063722;28;45395;-72
2023/09/10 05:28:58;;;;;;;;;11.67;10.33;;;;;26.42;95.78;101218.06;5062790;28;65308;-73
2023/09/10 05:31:23;;;;;;;;;12.33;12.33;;;;;26.41;95.96;101209.97;5060696;28;60472;-73
2023/09/10 05:33:50;;;;;;;;;10.67;10.67;;;;;26.42;95.75;101209.94;5063764;28;46134;-73
2023/09/10 05:36:15;;;;;;;;;11.67;11.00;;;;;26.41;95.70;101202.72;5052000;28;45422;-72
2023/09/10 05:38:40;;;;;;;;;10.33;10.33;;;;;26.39;96.32;101210.91;5055335;28;45870;-72
2023/09/10 05:41:07;;;;;;;;;12.00;10.00;;;;;26.41;96.34;101209.97;5056336;28;62106;-75
2023/09/10 05:43:32;;;;;;;;;10.33;9.00;;;;;26.44;96.58;101207.16;5073211;28;46342;-73
2023/09/10 05:45:58;;;;;;;;;12.00;10.00;;;;;26.43;96.76;101211.69;5073337;28;45517;-72
2023/09/10 05:48:23;;;;;;;;;12.00;7.67;;;;;26.43;96.91;101217.13;5070953;28;66601;-74
2023/09/10 05:50:49;;;;;;;;;14.67;10.00;;;;;26.43;96.64;101211.69;5073420;27;45137;-73
2023/09/10 05:53:15;;;;;;;;;12.33;10.00;;;;;26.45;96.12;101217.03;5059944;28;46078;-73
2023/09/10 05:55:40;;;;;;;;;12.00;10.00;;;;;26.45;96.91;101220.59;5068639;28;68529;-72
2023/09/10 05:58:07;;;;;;;;;13.00;10.00;;;;;26.47;96.57;101220.53;5067780;28;45488;-73
2023/09/10 06:00:32;;;;;;;;;15.67;11.67;;;;;26.47;96.45;101229.53;5068445;27;45568;-76
2023/09/10 06:02:57;;;;;;;;;12.00;10.00;;;;;26.50;96.66;101228.50;5071765;28;68257;-74
2023/09/10 06:05:23;;;;;;;;;11.67;11.67;;;;;26.51;97.63;101227.56;5065114;28;70587;-73
2023/09/10 06:07:48;;;;;;;;;12.67;11.33;;;;;26.51;97.20;101228.44;5065102;28;64246;-73
2023/09/10 06:10:13;;;;;;;;;13.67;10.00;;;;;26.52;97.27;101223.88;5055071;28;59426;-73
2023/09/10 06:12:39;;;;;;;;;12.00;11.00;;;;;26.54;97.42;101222.00;5070466;28;62071;-73
2023/09/10 06:15:06;;;;;;;;;10.00;10.00;;;;;26.54;97.48;101225.59;5060129;27;45323;-72
2023/09/10 06:17:32;;;;;;;;;10.67;8.33;;;;;26.58;97.10;101231.69;5069196;28;45171;-72
2023/09/10 06:19:57;;;;;;;;;10.33;10.00;;;;;26.60;97.52;101225.28;5070095;28;45227;-73
2023/09/10 06:22:22;;;;;;;;;10.00;9.00;;;;;26.66;97.00;101231.34;5066838;28;45726;-73
2023/09/10 06:24:48;;;;;;;;;10.33;8.67;;;;;26.72;97.28;101231.03;5066814;28;70460;-73
2023/09/10 06:27:13;;;;;;;;;12.67;10.67;;;;;26.75;96.96;101229.06;5058848;28;45486;-73
2023/09/10 06:29:38;;;;;;;;;11.67;10.33;;;;;26.80;96.47;101236.97;5063781;28;55894;-73
2023/09/10 06:32:04;;;;;;;;;10.67;10.00;;;;;26.81;97.09;101241.41;5061123;28;70137;-73
2023/09/10 06:34:30;;;;;;;;;12.00;11.00;;;;;26.85;97.59;101243.03;5061295;27;45412;-73
2023/09/10 06:36:55;;;;;;;;;11.00;9.33;;;;;26.87;97.66;101239.28;5062677;28;66240;-73
2023/09/10 06:39:20;;;;;;;;;14.00;10.33;;;;;26.92;97.78;101238.16;5057868;27;61524;-73
2023/09/10 06:41:46;;;;;;;;;10.33;9.00;;;;;26.94;97.50;101234.41;5071423;28;71420;-73
2023/09/10 06:44:11;;;;;;;;;9.67;9.33;;;;;26.99;97.50;101236.88;5063019;28;45501;-73
2023/09/10 06:46:36;;;;;;;;;12.67;10.00;;;;;27.04;97.98;101243.81;5072152;28;64079;-73
2023/09/10 06:49:02;;;;;;;;;13.67;10.00;;;;;27.06;97.50;101244.66;5074482;28;57595;-73
2023/09/10 06:51:27;;;;;;;;;12.67;11.00;;;;;27.16;97.26;101239.63;5073181;28;46323;-73
2023/09/10 06:53:53;;;;;;;;;12.33;11.00;;;;;27.20;97.56;101243.94;5052583;28;45448;-73
2023/09/10 06:56:18;;;;;;;;;12.00;10.00;;;;;27.27;97.34;101239.06;5068865;27;45266;-73
2023/09/10 06:58:44;;;;;;;;;12.00;12.00;;;;;27.33;97.91;101242.38;5067005;28;56027;-73
2023/09/10 07:01:09;;;;;;;;;8.33;8.33;;;;;27.40;97.01;101242.91;5067494;28;48193;-73
2023/09/10 07:03:34;;;;;;;;;11.00;10.00;;;;;27.47;97.21;101240.75;5059020;28;66074;-73
2023/09/10 07:06:04;;;;;;;;;9.00;9.00;;;;;27.53;96.98;101244.00;5067015;28;45337;-75
2023/09/10 07:08:29;;;;;;;;;10.33;10.33;;;;;27.59;96.89;101243.72;5055486;27;45506;-73
2023/09/10 07:10:55;;;;;;;;;10.33;10.33;;;;;27.67;96.15;101246.00;5053761;28;71886;-73
2023/09/10 07:13:24;;;;;;;;;9.00;8.33;;;;;27.73;95.63;101247.53;5048061;28;45240;-73
2023/09/10 07:15:49;;;;;;;;;11.00;11.00;;;;;27.77;95.59;101243.69;5071869;27;45310;-74
2023/09/10 07:18:15;;;;;;;;;12.67;9.67;;;;;27.82;95.88;101249.75;5070837;28;62197;-73
2023/09/10 07:20:40;;;;;;;;;15.33;12.67;;;;;27.84;96.44;101247.81;5070521;27;52806;-73
2023/09/10 07:23:05;;;;;;;;;11.00;11.00;;;;;27.84;95.09;101248.69;5067874;28;65645;-73
2023/09/10 07:25:31;;;;;;;;;11.33;9.00;;;;;27.88;95.43;101244.88;5064050;28;63898;-74
2023/09/10 07:27:56;;;;;;;;;12.33;11.00;;;;;27.92;95.40;101254.59;5066214;28;57870;-73
2023/09/10 07:30:21;;;;;;;;;10.00;10.00;;;;;27.95;94.81;101250.81;5061905;28;68492;-73
2023/09/10 07:32:46;;;;;;;;;11.00;10.00;;;;;27.97;91.10;101259.78;5052974;28;69930;-73
2023/09/10 07:35:13;;;;;;;;;12.33;10.33;;;;;28.03;90.99;101259.44;5049162;28;60373;-74
2023/09/10 07:37:38;;;;;;;;;14.67;11.67;;;;;28.08;90.90;101256.47;5057426;28;45456;-73
2023/09/10 07:40:04;;;;;;;;;10.67;8.67;;;;;28.11;90.89;101261.72;5055951;28;65788;-73
2023/09/10 07:42:30;;;;;;;;;13.33;9.33;;;;;28.14;90.55;101265.16;5057360;27;45398;-73
2023/09/10 07:44:55;;;;;;;;;12.67;11.00;;;;;28.16;89.57;101260.50;5052147;28;53347;-74
2023/09/10 07:47:20;;;;;;;;;9.00;9.00;;;;;28.22;89.66;101269.25;5052664;28;63490;-73
2023/09/10 07:49:46;;;;;;;;;12.67;10.67;;;;;28.30;89.78;101262.44;5057448;28;70997;-72
2023/09/10 07:52:11;;;;;;;;;10.67;10.67;;;;;28.35;90.32;101260.38;5056633;28;65607;-75
2023/09/10 07:54:36;;;;;;;;;9.33;9.33;;;;;28.39;91.88;101258.34;5058381;28;45404;-73
2023/09/10 07:57:03;;;;;;;;;12.33;10.00;;;;;28.44;89.99;101259.88;5064499;28;45608;-74
2023/09/10 07:59:29;;;;;;;;;9.67;9.67;;;;;28.52;90.76;101258.56;5056104;28;45738;-73
2023/09/10 08:01:54;;;;;;;;;12.00;11.67;;;;;28.54;91.01;101260.19;5047848;28;45548;-73
2023/09/10 08:04:19;;;;;;;;;14.33;11.33;;;;;28.58;88.97;101271.78;5045564;28;59289;-74
2023/09/10 08:06:45;;;;;;;;;12.00;10.00;;;;;28.62;89.03;101263.38;5054296;28;45431;-74
2023/09/10 08:09:10;;;;;;;;;11.33;10.33;;;;;28.68;91.53;101259.41;5049467;28;64597;-73
2023/09/10 08:11:35;;;;;;;;;11.00;8.67;;;;;28.72;91.31;101258.28;5162902;22;68416;-73
2023/09/10 08:14:01;;;;;;;;;12.67;10.67;;;;;28.75;91.79;101257.22;5066441;28;64952;-73
2023/09/10 08:16:26;;;;;;;;;10.00;10.00;;;;;28.77;92.39;101258.03;5066555;28;60123;-73
2023/09/10 08:18:51;;;;;;;;;9.00;9.00;;;;;28.86;93.79;101254.75;5067321;27;70587;-73
2023/09/10 08:21:17;;;;;;;;;8.33;8.33;;;;;28.86;93.40;101257.47;5073515;28;45504;-73
2023/09/10 08:23:43;;;;;;;;;14.67;10.33;;;;;28.90;93.85;101256.31;5073399;28;63335;-72
2023/09/10 08:26:08;;;;;;;;;10.00;8.00;;;;;28.93;92.62;101245.28;5075090;27;45344;-73
2023/09/10 08:28:34;;;;;;;;;13.67;10.00;;;;;28.99;92.76;101247.66;5074630;27;46438;-74
2023/09/10 08:30:59;;;;;;;;;12.00;10.33;;;;;29.00;91.98;101251.25;5073375;27;45291;-73
2023/09/10 08:33:25;;;;;;;;;12.67;9.67;;;;;29.07;93.08;101248.06;5069919;27;64122;-73
2023/09/10 08:35:51;;;;;;;;;9.00;9.00;;;;;29.09;91.73;101251.59;5069622;27;45398;-72
2023/09/10 08:38:16;;;;;;;;;10.00;8.33;;;;;29.14;91.10;101257.63;5068106;28;47539;-73
2023/09/10 08:41:04;;;;;;;;;12.00;11.00;;;;;29.14;90.36;101254.91;5068442;28;66300;-72
2023/09/10 08:43:40;;;;;;;;;11.33;10.00;;;;;29.20;90.69;101248.22;5068700;28;45461;-73
2023/09/10 08:46:09;;;;;;;;;11.67;10.33;;;;;29.22;91.29;101249.88;5065452;28;46106;-74
2023/09/10 08:48:41;;;;;;;;;11.00;9.33;;;;;29.21;91.38;101241.81;5065611;27;47452;-73
2023/09/10 08:51:15;;;;;;;;;9.33;9.33;;;;;29.26;90.83;101263.28;5065791;28;45549;-73
2023/09/10 08:53:41;;;;;;;;;11.00;9.00;;;;;29.30;89.77;101256.72;5064093;28;45565;-73
2023/09/10 08:56:08;;;;;;;;;11.00;11.00;;;;;29.34;88.74;101248.25;5070020;28;46210;-72
2023/09/10 08:58:34;;;;;;;;;11.00;8.33;;;;;29.34;89.87;101242.81;5067255;27;47314;-73
2023/09/10 09:01:00;;;;;;;;;11.33;10.33;;;;;29.38;88.94;101241.66;5063875;28;45342;-74
2023/09/10 09:03:28;;;;;;;;;10.67;10.00;;;;;29.40;89.71;101239.72;5067941;28;45463;-73
2023/09/10 09:05:56;;;;;;;;;12.00;10.00;;;;;29.40;90.06;101245.19;5064680;28;45319;-74
2023/09/10 09:08:28;;;;;;;;;11.00;9.33;;;;;29.41;88.02;101241.47;5069336;27;46813;-75
2023/09/10 09:10:54;;;;;;;;;12.00;9.00;;;;;29.42;87.35;101242.34;5068028;28;45290;-75
2023/09/10 09:13:20;;;;;;;;;12.67;8.67;;;;;29.47;87.88;101240.22;5063406;27;45389;-74
2023/09/10 09:15:47;;;;;;;;;10.00;10.00;;;;;29.47;88.26;101235.66;5055122;28;45476;-74
2023/09/10 09:18:14;;;;;;;;;10.00;9.00;;;;;29.50;88.41;101240.00;5071636;28;45213;-74
2023/09/10 09:20:47;;;;;;;;;14.00;11.00;;;;;29.51;86.88;101236.34;5060067;27;45507;-75
2023/09/10 09:23:18;;;;;;;;;10.00;10.00;;;;;29.56;86.10;101239.66;5071963;28;45393;-74
2023/09/10 09:25:43;;;;;;;;;12.67;10.67;;;;;29.63;84.01;101238.34;5069136;28;45550;-74
2023/09/10 09:28:09;;;;;;;;;8.33;8.33;;;;;29.72;85.17;101229.59;5065262;28;72494;-74
2023/09/10 09:30:35;;;;;;;;;15.00;10.67;;;;;29.78;86.10;101216.56;5063024;28;45610;-74
2023/09/10 09:33:00;;;;;;;;;11.00;10.67;;;;;29.85;86.09;101223.38;5070661;28;45479;-75
2023/09/10 09:35:25;;;;;;;;;8.67;8.67;;;;;29.90;86.89;101219.38;5070763;27;65234;-74
2023/09/10 09:37:51;;;;;;;;;10.33;9.33;;;;;29.97;88.45;101209.84;5072053;27;46608;-74
2023/09/10 09:40:21;;;;;;;;;12.33;10.00;;;;;30.02;88.79;101217.72;5070306;28;67373;-74
2023/09/10 09:42:46;;;;;;;;;10.67;10.67;;;;;30.05;89.41;101208.50;5068971;28;45346;-74
2023/09/10 09:45:11;;;;;;;;;10.33;9.33;;;;;30.06;87.80;101210.22;5065217;27;54378;-74
2023/09/10 09:47:37;;;;;;;;;13.33;9.67;;;;;30.10;87.99;101209.94;5061826;27;70366;-74
2023/09/10 09:50:03;;;;;;;;;15.00;10.00;;;;;30.13;88.46;101206.16;5062278;27;48059;-75
2023/09/10 09:52:29;;;;;;;;;13.33;12.00;;;;;30.13;87.80;101209.75;5066883;28;45506;-74
2023/09/10 09:54:54;;;;;;;;;10.67;10.00;;;;;30.15;87.48;101205.09;5063982;27;50997;-74
2023/09/10 09:57:19;;;;;;;;;12.33;10.00;;;;;30.23;89.10;101208.19;5060534;28;68758;-75
2023/09/10 09:59:45;;;;;;;;;12.33;12.33;;;;;30.30;84.76;101200.47;5070177;28;45425;-78
2023/09/10 10:02:15;;;;;;;;;7.00;7.00;;;;;30.38;83.82;101200.84;5059071;28;62126;-77
2023/09/10 10:04:41;;;;;;;;;14.33;11.33;;;;;30.48;82.02;101198.41;5064336;28;46316;-78
2023/09/10 10:07:08;;;;;;;;;10.33;10.33;;;;;30.62;81.87;101197.47;5067870;28;47654;-77
2023/09/10 10:09:37;;;;;;;;;13.33;12.33;;;;;30.77;81.04;101204.63;5069117;27;45408;-77
2023/09/10 10:12:04;;;;;;;;;11.33;10.67;;;;;30.92;80.54;101202.72;5061680;28;45373;-77
2023/09/10 10:14:31;;;;;;;;;11.00;10.67;;;;;31.06;80.44;101193.63;5067867;27;45795;-78
2023/09/10 10:17:01;;;;;;;;;10.67;10.00;;;;;31.19;78.91;101200.81;5061760;28;47222;-78
2023/09/10 10:19:29;;;;;;;;;11.67;11.33;;;;;31.32;78.44;101197.25;5065986;28;45541;-76
2023/09/10 10:21:55;;;;;;;;;14.67;13.00;;;;;31.45;77.16;101198.16;5064955;28;45424;-78
2023/09/10 10:24:21;;;;;;;;;12.33;11.33;;;;;31.59;77.42;101192.59;5062978;27;53394;-77
2023/09/10 10:26:48;;;;;;;;;9.33;9.33;;;;;31.70;76.50;101187.22;5062246;27;47539;-78
2023/09/10 10:29:13;;;;;;;;;10.67;10.67;;;;;31.83;76.41;101183.63;5067231;27;45525;-78
2023/09/10 10:31:40;;;;;;;;;10.67;10.67;;;;;31.95;74.72;101185.47;5067898;28;45383;-79
2023/09/10 10:34:15;;;;;;;;;11.00;11.00;;;;;32.06;75.20;101182.81;5065081;28;64488;-78
2023/09/10 10:37:01;;;;;;;;;17.00;17.00;;;;;32.20;75.01;101185.41;5061930;28;46960;-77
2023/09/10 10:39:46;;;;;;;;;25.67;25.00;;;;;32.34;74.57;101184.41;5068731;28;46950;-80
2023/09/10 10:42:16;;;;;;;;;28.33;26.33;;;;;32.44;73.71;101182.75;5074318;28;45422;-77
2023/09/10 10:44:42;;;;;;;;;16.00;15.00;;;;;32.54;72.78;101180.16;5061025;28;45547;-79
2023/09/10 10:47:13;;;;;;;;;14.00;12.33;;;;;32.66;73.17;101176.53;5063322;28;45838;-80
2023/09/10 10:49:43;;;;;;;;;15.00;12.00;;;;;32.78;72.02;101169.22;5070643;28;45452;-79
2023/09/10 10:52:09;;;;;;;;;17.00;13.00;;;;;32.87;70.78;101163.06;5067001;28;45313;-78
2023/09/10 10:54:35;;;;;;;;;13.33;11.00;;;;;32.96;70.61;101166.97;5066810;28;45425;-79
2023/09/10 10:57:03;;;;;;;;;15.33;12.33;;;;;33.08;70.08;101166.03;5068066;28;70952;-79
2023/09/10 10:59:29;;;;;;;;;15.33;13.33;;;;;33.19;69.94;101160.56;5068246;28;45510;-78
2023/09/10 11:02:14;;;;;;;;;15.33;15.33;;;;;33.31;69.75;101156.84;5064250;28;45429;-79
2023/09/10 11:04:53;;;;;;;;;13.67;13.33;;;;;33.41;69.77;101151.56;5066438;28;45445;-79
2023/09/10 11:07:19;;;;;;;;;11.67;11.00;;;;;33.52;69.17;101150.69;5064316;28;46455;-79
2023/09/10 11:09:46;;;;;;;;;16.67;14.33;;;;;33.57;68.63;101153.94;5066544;28;45581;-79